Topping, Virginia
Current Conditions -  °F | °C
As of 5:15 AM on Friday 31 Oct 2014 (Local Time) from KW75 Reporting Station
Overcast Overcast  
Wind Chill: 47°   Ceiling: 5500
Heat Index: 49°   Visibility: 10mi
Dew Point: 43°   Wind: 6mph
Humidity: 79%   Direction: 340°NNW
Pressure: 29.98"   Gusts: NA
Location:  37.59°N, 76.47°W
Report Text: KW75 310915Z AUTO 34005KT 10SM OVC055 10/06 A2998 RMK AO1 T00970062
Loading
Personal Weather Stations






























Interactive Weather Map
Tropical Storm Tracking
New forecast layout! Learn more

10-Day Weather Forecast

Advertisements
Track Severe Weather on mobile